createdAt,value
2023-04-11T00:00:29.263Z,4.15
2023-04-11T00:03:00.491Z,4.53
2023-04-11T00:05:33.658Z,3.40
2023-04-11T00:08:00.631Z,6.00
2023-04-11T00:10:27.061Z,3.90
2023-04-11T00:12:56.744Z,4.22
2023-04-11T00:15:26.897Z,4.78
2023-04-11T00:17:53.922Z,4.13
2023-04-11T00:20:20.989Z,4.93
2023-04-11T00:22:47.518Z,4.38
2023-04-11T00:25:15.040Z,3.13
2023-04-11T00:27:41.536Z,5.53
2023-04-11T00:30:08.667Z,6.00
2023-04-11T00:32:35.306Z,4.40
2023-04-11T00:35:01.875Z,9.18
2023-04-11T00:37:28.327Z,11.90
2023-04-11T00:39:56.141Z,11.82
2023-04-11T00:42:22.684Z,9.23
2023-04-11T00:44:49.248Z,3.10
2023-04-11T00:47:15.751Z,4.95
2023-04-11T00:49:42.349Z,3.85
2023-04-11T00:52:09.379Z,3.83
2023-04-11T00:54:35.843Z,5.75
2023-04-11T00:57:04.210Z,4.93
2023-04-11T00:59:31.978Z,2.17
2023-04-11T01:01:59.633Z,3.05
2023-04-11T01:04:26.281Z,3.10
2023-04-11T01:06:59.009Z,3.10
2023-04-11T01:09:26.274Z,2.25
2023-04-11T01:11:53.085Z,4.25
2023-04-11T01:14:20.754Z,2.40
2023-04-11T01:16:48.554Z,3.28
2023-04-11T01:19:22.530Z,3.70
2023-04-11T01:21:50.884Z,1.85
2023-04-11T01:24:17.615Z,5.10
2023-04-11T01:26:44.541Z,4.07
2023-04-11T01:29:11.307Z,3.40
2023-04-11T01:31:37.852Z,2.10
2023-04-11T01:34:04.503Z,3.13
2023-04-11T01:36:31.640Z,2.55
2023-04-11T01:38:58.357Z,4.28
2023-04-11T01:41:25.825Z,4.43
2023-04-11T01:43:52.450Z,1.65
2023-04-11T01:46:19.241Z,3.88
2023-04-11T01:48:46.036Z,4.18
2023-04-11T01:51:12.529Z,2.63
2023-04-11T01:53:40.055Z,2.67
2023-04-11T01:56:07.086Z,2.88
2023-04-11T01:58:33.490Z,3.65
2023-04-11T02:00:59.899Z,4.18
2023-04-11T02:03:26.462Z,5.72
2023-04-11T02:05:52.991Z,4.25
2023-04-11T02:08:19.427Z,4.65
2023-04-11T02:10:45.811Z,5.55
2023-04-11T02:13:12.242Z,3.63
2023-04-11T02:15:38.708Z,4.95
2023-04-11T02:18:05.450Z,3.53
2023-04-11T02:20:31.973Z,6.13
2023-04-11T02:22:59.074Z,4.65
2023-04-11T02:25:25.639Z,3.55
2023-04-11T02:27:52.064Z,6.93
2023-04-11T02:30:18.464Z,5.80
2023-04-11T02:32:46.561Z,4.50
2023-04-11T02:35:13.029Z,6.85
2023-04-11T02:37:39.439Z,5.60
2023-04-11T02:40:06.920Z,5.35
2023-04-11T02:42:33.564Z,5.75
2023-04-11T02:45:00.210Z,8.45
2023-04-11T02:47:26.890Z,9.02
2023-04-11T02:49:53.315Z,10.35
2023-04-11T02:52:19.929Z,10.68
2023-04-11T02:54:46.727Z,9.48
2023-04-11T02:57:13.194Z,8.85
2023-04-11T02:59:39.596Z,13.25
2023-04-11T03:02:06.081Z,7.47
2023-04-11T03:04:32.705Z,8.95
2023-04-11T03:06:59.236Z,9.30
2023-04-11T03:09:25.931Z,6.57
2023-04-11T03:11:52.358Z,11.52
2023-04-11T03:14:18.778Z,8.98
2023-04-11T03:16:45.686Z,11.70
2023-04-11T03:19:12.090Z,9.65
2023-04-11T03:21:38.476Z,14.55
2023-04-11T03:24:05.264Z,11.13
2023-04-11T03:26:32.239Z,11.43
2023-04-11T03:28:59.171Z,9.30
2023-04-11T03:31:25.894Z,8.80
2023-04-11T03:33:52.319Z,9.20
2023-04-11T03:36:18.833Z,14.77
2023-04-11T03:38:45.348Z,11.25
2023-04-11T03:41:11.820Z,13.43
2023-04-11T03:43:38.295Z,9.32
2023-04-11T03:46:04.935Z,9.25
2023-04-11T03:48:31.364Z,11.25
2023-04-11T03:50:57.864Z,10.73
2023-04-11T03:53:24.294Z,12.20
2023-04-11T03:55:52.648Z,12.18
2023-04-11T03:58:19.115Z,14.05
2023-04-11T04:00:46.404Z,12.05
2023-04-11T04:03:13.915Z,12.15
2023-04-11T04:05:41.308Z,14.68
2023-04-11T04:08:07.993Z,14.50
2023-04-11T04:10:34.375Z,15.82
2023-04-11T04:13:00.869Z,13.20
2023-04-11T04:15:27.263Z,15.68
2023-04-11T04:17:53.796Z,12.38
2023-04-11T04:20:20.299Z,15.70
2023-04-11T04:22:47.429Z,22.08
2023-04-11T04:25:15.747Z,18.58
2023-04-11T04:27:44.353Z,16.23
2023-04-11T04:30:15.217Z,18.23
2023-04-11T04:32:43.957Z,14.27
2023-04-11T04:35:11.041Z,14.98
2023-04-11T04:37:45.712Z,15.95
2023-04-11T04:40:14.019Z,13.48
2023-04-11T04:42:44.094Z,16.42
2023-04-11T04:45:13.424Z,14.02
2023-04-11T04:47:39.975Z,14.00
2023-04-11T04:50:07.041Z,16.85
2023-04-11T04:52:33.544Z,14.23
2023-04-11T04:55:00.103Z,13.40
2023-04-11T04:57:28.131Z,19.20
2023-04-11T04:59:55.555Z,20.05
2023-04-11T05:02:22.265Z,17.52
2023-04-11T05:04:50.442Z,17.67
2023-04-11T05:07:18.322Z,12.63
2023-04-11T05:09:44.911Z,21.13
2023-04-11T05:12:11.578Z,16.52
2023-04-11T05:14:38.087Z,19.48
2023-04-11T05:17:04.954Z,21.45
2023-04-11T05:19:32.450Z,17.27
2023-04-11T05:21:58.935Z,22.27
2023-04-11T05:24:25.636Z,18.02
2023-04-11T05:26:52.106Z,16.33
2023-04-11T05:29:18.583Z,22.77
2023-04-11T05:31:45.204Z,19.60
2023-04-11T05:34:11.668Z,11.35
2023-04-11T05:36:38.047Z,4.70
2023-04-11T05:39:09.390Z,3.70
2023-04-11T05:41:35.941Z,3.58
2023-04-11T05:44:02.359Z,8.25
2023-04-11T05:46:29.462Z,9.30
2023-04-11T05:48:58.652Z,8.15
2023-04-11T05:51:25.099Z,6.25
2023-04-11T05:53:51.515Z,9.60
2023-04-11T05:56:17.902Z,3.00
2023-04-11T05:58:44.456Z,4.88
2023-04-11T06:01:18.198Z,4.28
2023-04-11T06:03:48.460Z,6.65
2023-04-11T06:06:15.086Z,5.43
2023-04-11T06:08:43.622Z,4.65
2023-04-11T06:11:11.117Z,7.30
2023-04-11T06:13:37.512Z,5.85
2023-04-11T06:16:05.969Z,8.93
2023-04-11T06:18:32.473Z,6.75
2023-04-11T06:20:58.909Z,9.15
2023-04-11T06:23:25.338Z,6.97
2023-04-11T06:25:52.357Z,7.00
2023-04-11T06:28:18.791Z,9.40
2023-04-11T06:30:45.321Z,10.25
2023-04-11T06:33:11.950Z,7.38
2023-04-11T06:35:38.711Z,9.52
2023-04-11T06:38:05.182Z,8.65
2023-04-11T06:40:31.724Z,12.48
2023-04-11T06:43:00.368Z,8.68
2023-04-11T06:45:26.826Z,11.18
2023-04-11T06:47:53.337Z,9.25
2023-04-11T06:50:19.853Z,8.07
2023-04-11T06:52:46.401Z,10.02
2023-04-11T06:55:15.390Z,6.93
2023-04-11T06:57:43.151Z,7.43
2023-04-11T07:00:12.247Z,5.60
2023-04-11T07:02:39.552Z,3.38
2023-04-11T07:05:06.585Z,7.40
2023-04-11T07:07:33.302Z,5.65
2023-04-11T07:09:59.712Z,3.67
2023-04-11T07:12:26.182Z,3.78
2023-04-11T07:14:52.869Z,5.40
2023-04-11T07:17:19.296Z,7.35
2023-04-11T07:19:46.674Z,3.80
2023-04-11T07:22:13.090Z,3.83
2023-04-11T07:24:39.576Z,4.50
2023-04-11T07:27:06.749Z,3.47
2023-04-11T07:29:33.157Z,6.57
2023-04-11T07:31:59.604Z,8.45
2023-04-11T07:34:26.416Z,9.32
2023-04-11T07:36:53.126Z,5.75
2023-04-11T07:39:19.686Z,5.75
2023-04-11T07:41:46.154Z,7.75
2023-04-11T07:44:12.626Z,6.03
2023-04-11T07:46:39.188Z,7.78
2023-04-11T07:49:05.655Z,9.07
2023-04-11T07:51:33.110Z,8.98
2023-04-11T07:53:59.700Z,6.85
2023-04-11T07:56:26.596Z,6.30
2023-04-11T07:58:53.033Z,6.25
2023-04-11T08:01:21.121Z,9.65
2023-04-11T08:03:47.742Z,7.47
2023-04-11T08:06:14.502Z,7.57
2023-04-11T08:08:41.146Z,6.65
2023-04-11T08:11:07.820Z,9.00
2023-04-11T08:13:34.295Z,8.15
2023-04-11T08:16:01.086Z,9.35
2023-04-11T08:18:27.526Z,6.88
2023-04-11T08:20:56.431Z,8.23
2023-04-11T08:23:22.954Z,6.70
2023-04-11T08:25:49.379Z,6.88
2023-04-11T08:28:15.910Z,8.40
2023-04-11T08:30:42.540Z,7.22
2023-04-11T08:33:10.090Z,10.40
2023-04-11T08:35:37.829Z,8.57
2023-04-11T08:38:04.294Z,5.70
2023-04-11T08:40:30.825Z,6.40
2023-04-11T08:43:00.835Z,7.68
2023-04-11T08:45:27.731Z,4.47
2023-04-11T08:47:54.359Z,7.50
2023-04-11T08:50:20.929Z,7.93
2023-04-11T08:52:49.654Z,5.00
2023-04-11T08:55:16.155Z,7.05
2023-04-11T08:57:42.673Z,7.22
2023-04-11T09:00:19.198Z,6.13
2023-04-11T09:02:59.224Z,6.18
2023-04-11T09:05:38.686Z,6.72
2023-04-11T09:08:07.615Z,5.88
2023-04-11T09:10:34.299Z,7.30
2023-04-11T09:13:02.131Z,8.18
2023-04-11T09:15:30.215Z,6.45
2023-04-11T09:18:00.344Z,5.93
2023-04-11T09:20:30.360Z,5.43
2023-04-11T09:22:58.903Z,9.68
2023-04-11T09:25:25.415Z,6.78
2023-04-11T09:28:07.850Z,6.03
2023-04-11T09:30:34.939Z,5.88
2023-04-11T09:33:18.107Z,5.63
2023-04-11T09:35:47.514Z,6.22
2023-04-11T09:38:13.963Z,3.08
2023-04-11T09:40:43.714Z,4.65
2023-04-11T09:43:10.122Z,5.30
2023-04-11T09:45:44.500Z,5.10
2023-04-11T09:48:14.479Z,4.03
2023-04-11T09:50:41.019Z,4.60
2023-04-11T09:53:09.789Z,5.88
2023-04-11T09:55:38.141Z,7.80
2023-04-11T09:58:05.807Z,7.10
2023-04-11T10:00:32.484Z,5.63
2023-04-11T10:02:59.329Z,9.02
2023-04-11T10:05:27.601Z,9.68
2023-04-11T10:08:17.146Z,4.53
2023-04-11T10:10:44.635Z,6.80
2023-04-11T10:13:39.957Z,7.40
2023-04-11T10:16:10.397Z,4.97
2023-04-11T10:18:38.106Z,6.20
2023-04-11T10:21:05.535Z,4.32
2023-04-11T10:24:11.861Z,4.70
2023-04-11T10:26:52.536Z,5.25
2023-04-11T10:29:33.135Z,5.03
2023-04-11T10:32:19.139Z,5.35
2023-04-11T10:35:17.639Z,4.25
2023-04-11T10:37:44.125Z,9.15
2023-04-11T10:40:11.064Z,4.28
2023-04-11T10:42:43.927Z,6.15
2023-04-11T10:45:18.085Z,6.65
2023-04-11T10:48:00.884Z,4.22
2023-04-11T10:50:27.287Z,7.32
2023-04-11T10:52:54.206Z,8.30
2023-04-11T10:55:20.976Z,4.95
2023-04-11T10:58:22.269Z,5.70
2023-04-11T11:00:52.348Z,3.97
2023-04-11T11:03:21.275Z,4.18
2023-04-11T11:05:57.269Z,6.50
2023-04-11T11:08:30.629Z,4.30
2023-04-11T11:11:01.773Z,4.47
2023-04-11T11:13:53.086Z,5.28
2023-04-11T11:16:23.773Z,4.00
2023-04-11T11:18:55.316Z,7.22
2023-04-11T11:21:27.693Z,6.15
2023-04-11T11:23:55.812Z,3.53
2023-04-11T11:26:22.555Z,4.25
2023-04-11T11:28:49.234Z,7.85
2023-04-11T11:31:16.208Z,7.07
2023-04-11T11:33:42.827Z,6.72
2023-04-11T11:36:09.815Z,5.97
2023-04-11T11:38:36.463Z,7.15
2023-04-11T11:41:03.299Z,4.70
2023-04-11T11:43:29.760Z,8.00
2023-04-11T11:46:10.971Z,3.83
2023-04-11T11:48:37.820Z,8.60
2023-04-11T11:51:04.710Z,6.80
2023-04-11T11:53:31.188Z,5.30
2023-04-11T11:55:57.994Z,6.28
2023-04-11T11:58:24.707Z,6.43
2023-04-11T12:00:52.268Z,8.85
2023-04-11T12:03:23.211Z,4.40
2023-04-11T12:05:52.806Z,6.20
2023-04-11T12:08:20.904Z,4.15
2023-04-11T12:10:47.847Z,7.35
2023-04-11T12:13:25.519Z,5.70
2023-04-11T12:15:56.788Z,6.72
2023-04-11T12:18:24.363Z,6.40
2023-04-11T12:20:52.637Z,5.60
2023-04-11T12:23:19.708Z,5.93
2023-04-11T12:25:46.786Z,6.57
2023-04-11T12:28:13.950Z,7.28
2023-04-11T12:30:40.669Z,5.18
2023-04-11T12:33:07.238Z,7.32
2023-04-11T12:35:33.901Z,6.00
2023-04-11T12:38:00.673Z,8.52
2023-04-11T12:40:29.371Z,7.80
2023-04-11T12:42:57.378Z,5.57
2023-04-11T12:45:24.750Z,4.72
2023-04-11T12:47:51.355Z,6.25
2023-04-11T12:50:18.221Z,4.97
2023-04-11T12:52:44.988Z,4.95
2023-04-11T12:55:12.948Z,2.97
2023-04-11T12:57:40.098Z,5.05
2023-04-11T13:00:10.499Z,7.07
2023-04-11T13:02:43.017Z,4.75
2023-04-11T13:05:13.862Z,4.47
2023-04-11T13:07:40.887Z,4.28
2023-04-11T13:10:08.001Z,5.60
2023-04-11T13:12:39.679Z,6.70
2023-04-11T13:15:07.770Z,4.03
2023-04-11T13:17:34.327Z,5.00
2023-04-11T13:20:01.321Z,4.70
2023-04-11T13:22:27.763Z,6.30
2023-04-11T13:24:54.454Z,4.78
2023-04-11T13:27:22.098Z,5.82
2023-04-11T13:29:48.777Z,5.95
2023-04-11T13:32:15.503Z,9.02
2023-04-11T13:34:42.445Z,5.47
2023-04-11T13:37:08.976Z,7.18
2023-04-11T13:39:35.539Z,5.25
2023-04-11T13:42:02.042Z,5.40
2023-04-11T13:44:28.428Z,4.40
2023-04-11T13:46:54.949Z,4.82
2023-04-11T13:49:21.372Z,6.70
2023-04-11T13:51:47.930Z,5.32
2023-04-11T13:54:14.447Z,5.78
2023-04-11T13:56:41.330Z,2.90
2023-04-11T13:59:07.731Z,5.15
2023-04-11T14:01:34.629Z,5.10
2023-04-11T14:04:01.697Z,3.50
2023-04-11T14:06:28.539Z,5.90
2023-04-11T14:08:55.116Z,3.35
2023-04-11T14:11:21.606Z,5.03
2023-04-11T14:13:48.393Z,4.00
2023-04-11T14:16:15.017Z,3.25
2023-04-11T14:18:41.841Z,4.80
2023-04-11T14:21:08.514Z,3.28
2023-04-11T14:23:35.005Z,2.78
2023-04-11T14:26:01.628Z,3.90
2023-04-11T14:28:28.100Z,4.20
2023-04-11T14:30:55.967Z,6.10
2023-04-11T14:33:23.101Z,3.90
2023-04-11T14:35:50.775Z,4.97
2023-04-11T14:38:17.322Z,3.50
2023-04-11T14:40:44.419Z,3.85
2023-04-11T14:43:11.304Z,5.95
2023-04-11T14:45:37.986Z,3.78
2023-04-11T14:48:04.824Z,3.58
2023-04-11T14:50:31.413Z,3.28
2023-04-11T14:52:57.931Z,5.05
2023-04-11T14:55:24.378Z,2.72
2023-04-11T14:57:56.521Z,5.03
2023-04-11T15:00:24.595Z,3.85
2023-04-11T15:02:54.019Z,3.85
2023-04-11T15:05:21.579Z,4.78
2023-04-11T15:07:49.712Z,2.90
2023-04-11T15:10:18.217Z,26.52
2023-04-11T15:12:44.892Z,18.40
2023-04-11T15:15:12.054Z,24.63
2023-04-11T15:17:43.592Z,28.48
2023-04-11T15:20:11.895Z,11.17
2023-04-11T15:22:40.160Z,21.20
2023-04-11T15:25:10.178Z,18.58
2023-04-11T15:27:36.627Z,13.02
2023-04-11T15:30:05.923Z,4.10
2023-04-11T15:32:32.479Z,4.07
2023-04-11T15:34:59.408Z,3.38
2023-04-11T15:37:26.594Z,4.80
2023-04-11T15:39:53.400Z,5.30
2023-04-11T15:42:19.854Z,4.78
2023-04-11T15:44:46.445Z,4.28
2023-04-11T15:47:12.907Z,5.82
2023-04-11T15:49:39.763Z,3.75
2023-04-11T15:52:06.987Z,4.63
2023-04-11T15:54:33.689Z,5.05
2023-04-11T15:57:00.311Z,5.50
2023-04-11T15:59:26.989Z,4.30
2023-04-11T16:01:53.479Z,5.63
2023-04-11T16:04:20.548Z,3.00
2023-04-11T16:06:47.110Z,5.65
2023-04-11T16:09:13.604Z,4.38
2023-04-11T16:11:40.156Z,5.32
2023-04-11T16:14:06.836Z,5.45
2023-04-11T16:16:33.372Z,4.32
2023-04-11T16:18:59.876Z,6.25
2023-04-11T16:21:27.211Z,5.70
2023-04-11T16:23:54.817Z,5.53
2023-04-11T16:26:21.517Z,4.93
2023-04-11T16:28:48.782Z,5.05
2023-04-11T16:31:21.547Z,5.88
2023-04-11T16:33:48.029Z,6.00
2023-04-11T16:36:17.028Z,5.57
2023-04-11T16:38:43.758Z,3.08
2023-04-11T16:41:10.273Z,5.88
2023-04-11T16:43:37.042Z,3.05
2023-04-11T16:46:03.732Z,5.20
2023-04-11T16:48:31.524Z,4.70
2023-04-11T16:50:57.990Z,3.58
2023-04-11T16:53:24.473Z,6.72
2023-04-11T16:55:52.647Z,4.10
2023-04-11T16:58:19.315Z,4.68
2023-04-11T17:00:46.702Z,4.40
2023-04-11T17:03:13.368Z,6.88
2023-04-11T17:05:40.778Z,5.00
2023-04-11T17:08:07.302Z,5.63
2023-04-11T17:10:33.731Z,6.28
2023-04-11T17:13:00.789Z,5.43
2023-04-11T17:15:27.348Z,5.70
2023-04-11T17:17:53.848Z,5.38
2023-04-11T17:20:23.190Z,6.40
2023-04-11T17:22:49.711Z,8.70
2023-04-11T17:25:16.888Z,4.07
2023-04-11T17:27:43.408Z,4.50
2023-04-11T17:30:10.285Z,5.22
2023-04-11T17:32:38.103Z,4.65
2023-04-11T17:35:06.618Z,4.35
2023-04-11T17:37:33.963Z,5.93
2023-04-11T17:40:00.930Z,5.00
2023-04-11T17:42:27.590Z,5.22
2023-04-11T17:44:55.800Z,4.68
2023-04-11T17:47:23.697Z,4.57
2023-04-11T17:49:50.361Z,6.82
2023-04-11T17:52:17.141Z,6.07
2023-04-11T17:54:43.612Z,4.63
2023-04-11T17:57:10.075Z,3.78
2023-04-11T17:59:36.513Z,5.57
2023-04-11T18:02:03.193Z,5.32
2023-04-11T18:04:29.729Z,4.70
2023-04-11T18:06:56.366Z,5.97
2023-04-11T18:09:27.022Z,5.85
2023-04-11T18:11:53.501Z,6.65
2023-04-11T18:14:19.921Z,3.72
2023-04-11T18:16:46.863Z,6.20
2023-04-11T18:19:13.802Z,5.47
2023-04-11T18:21:41.045Z,6.50
2023-04-11T18:24:07.650Z,4.03
2023-04-11T18:26:35.506Z,3.08
2023-04-11T18:29:01.949Z,3.70
2023-04-11T18:31:28.546Z,4.68
2023-04-11T18:33:55.560Z,3.95
2023-04-11T18:36:22.752Z,5.57
2023-04-11T18:38:49.578Z,8.10
2023-04-11T18:41:17.120Z,6.30
2023-04-11T18:43:44.334Z,8.45
2023-04-11T18:46:11.155Z,5.65
2023-04-11T18:48:38.032Z,7.03
2023-04-11T18:51:05.272Z,5.30
2023-04-11T18:53:32.415Z,4.70
2023-04-11T18:56:02.869Z,5.95
2023-04-11T18:58:32.466Z,4.75
2023-04-11T19:01:06.618Z,6.25
2023-04-11T19:03:41.489Z,6.05
2023-04-11T19:06:08.813Z,3.13
2023-04-11T19:08:36.121Z,4.68
2023-04-11T19:11:02.765Z,5.40
2023-04-11T19:13:29.330Z,4.70
2023-04-11T19:15:55.939Z,6.35
2023-04-11T19:18:22.390Z,9.68
2023-04-11T19:20:48.783Z,10.48
2023-04-11T19:23:15.931Z,11.15
2023-04-11T19:25:42.826Z,8.35
2023-04-11T19:28:09.512Z,4.72
2023-04-11T19:30:36.209Z,6.20
2023-04-11T19:33:02.723Z,3.67
2023-04-11T19:35:29.355Z,4.82
2023-04-11T19:37:55.811Z,4.63
2023-04-11T19:40:23.382Z,6.05
2023-04-11T19:42:49.949Z,3.65
2023-04-11T19:45:16.411Z,2.95
2023-04-11T19:47:42.877Z,4.68
2023-04-11T19:50:13.339Z,4.60
2023-04-11T19:52:40.884Z,4.38
2023-04-11T19:55:09.285Z,3.00
2023-04-11T19:57:37.290Z,4.40
2023-04-11T20:00:10.767Z,4.88
2023-04-11T20:02:38.071Z,4.15
2023-04-11T20:05:05.827Z,5.40
2023-04-11T20:07:32.445Z,4.05
2023-04-11T20:09:58.903Z,4.43
2023-04-11T20:12:25.432Z,2.95
2023-04-11T20:14:51.822Z,3.80
2023-04-11T20:17:18.313Z,4.47
2023-04-11T20:19:44.875Z,6.00
2023-04-11T20:22:17.266Z,7.18
2023-04-11T20:24:43.779Z,6.30
2023-04-11T20:27:10.443Z,4.85
2023-04-11T20:29:38.282Z,3.28
2023-04-11T20:32:05.899Z,6.22
2023-04-11T20:34:32.427Z,4.30
2023-04-11T20:37:01.109Z,4.50
2023-04-11T20:39:28.005Z,4.55
2023-04-11T20:41:54.472Z,7.38
2023-04-11T20:44:23.724Z,3.78
2023-04-11T20:46:50.445Z,4.63
2023-04-11T20:49:18.182Z,4.72
2023-04-11T20:51:45.408Z,3.30
2023-04-11T20:54:11.919Z,4.63
2023-04-11T20:56:38.427Z,5.38
2023-04-11T20:59:04.926Z,4.82
2023-04-11T21:01:32.724Z,7.25
2023-04-11T21:04:03.342Z,7.75
2023-04-11T21:06:30.971Z,5.18
2023-04-11T21:08:57.989Z,8.57
2023-04-11T21:11:24.423Z,7.40
2023-04-11T21:13:51.078Z,5.85
2023-04-11T21:16:17.647Z,4.57
2023-04-11T21:18:44.140Z,4.38
2023-04-11T21:21:10.549Z,7.63
2023-04-11T21:23:37.244Z,4.28
2023-04-11T21:26:03.686Z,4.93
2023-04-11T21:28:30.607Z,4.90
2023-04-11T21:30:57.067Z,4.25
2023-04-11T21:33:23.503Z,4.70
2023-04-11T21:35:53.067Z,5.32
2023-04-11T21:38:19.471Z,5.90
2023-04-11T21:40:45.993Z,7.78
2023-04-11T21:43:13.155Z,4.00
2023-04-11T21:45:39.584Z,5.07
2023-04-11T21:48:06.062Z,9.77
2023-04-11T21:50:32.566Z,9.25
2023-04-11T21:52:59.172Z,5.80
2023-04-11T21:55:25.594Z,7.10
2023-04-11T21:57:52.034Z,5.15
2023-04-11T22:00:18.616Z,6.07
2023-04-11T22:02:45.194Z,8.85
2023-04-11T22:05:12.614Z,7.68
2023-04-11T22:07:48.017Z,10.52
2023-04-11T22:10:15.545Z,7.90
2023-04-11T22:12:42.086Z,9.80
2023-04-11T22:15:09.770Z,5.88
2023-04-11T22:17:37.238Z,6.57
2023-04-11T22:20:06.672Z,5.97
2023-04-11T22:22:33.147Z,5.75
2023-04-11T22:24:59.937Z,6.75
2023-04-11T22:27:27.166Z,7.78
2023-04-11T22:29:56.133Z,10.57
2023-04-11T22:32:23.308Z,6.70
2023-04-11T22:34:49.750Z,4.07
2023-04-11T22:37:16.210Z,10.43
2023-04-11T22:39:42.769Z,4.60
2023-04-11T22:42:10.845Z,5.32
2023-04-11T22:44:37.268Z,7.60
2023-04-11T22:47:11.064Z,7.25
2023-04-11T22:49:40.684Z,6.93
2023-04-11T22:52:14.723Z,8.85
2023-04-11T22:54:42.543Z,6.93
2023-04-11T22:57:09.392Z,5.47
2023-04-11T22:59:36.632Z,9.50
2023-04-11T23:02:03.154Z,5.85
2023-04-11T23:04:31.410Z,7.50
2023-04-11T23:06:58.099Z,6.88
2023-04-11T23:09:24.594Z,7.63
2023-04-11T23:11:51.125Z,8.82
2023-04-11T23:14:18.156Z,6.15
2023-04-11T23:16:45.082Z,8.40
2023-04-11T23:19:11.673Z,6.72
2023-04-11T23:21:38.300Z,9.10
2023-04-11T23:24:06.762Z,5.25
2023-04-11T23:26:33.285Z,4.97
2023-04-11T23:29:01.963Z,5.22
2023-04-11T23:31:28.490Z,6.70
2023-04-11T23:33:55.505Z,5.25
2023-04-11T23:36:22.666Z,7.22
2023-04-11T23:38:49.105Z,5.00
2023-04-11T23:41:15.511Z,8.75
2023-04-11T23:43:41.922Z,9.98
2023-04-11T23:46:08.363Z,5.10
2023-04-11T23:48:34.810Z,7.13
2023-04-11T23:51:01.314Z,10.20
2023-04-11T23:53:27.717Z,7.43
2023-04-11T23:55:54.168Z,10.68
2023-04-11T23:58:20.804Z,6.63
